Time;durP1;ratioP1;P1;durP2;ratioP2;P2;SDS_P1;SDS_P2;PMS_P1;PMS_P2;Temp;Humidity;BMP_temperature;BMP_pressure;BME280_temperature;BME280_humidity;BME280_pressure;Samples;Min_cycle;Max_cycle;Signal;HPM_P1;HPM_P2
2022/01/05 00:01:42;;;;;;;;;;;5.40;99.90;;;;;;5094262;28;19959;-45
2022/01/05 00:04:08;;;;;;;;;;;5.30;99.90;;;;;;5094246;28;20334;-45
2022/01/05 00:06:33;;;;;;;;;;;5.20;99.90;;;;;;5093891;28;19915;-49
2022/01/05 00:08:59;;;;;;;;;;;5.10;99.90;;;;;;5094118;28;19916;-45
2022/01/05 00:11:24;;;;;;;;;;;5.10;99.90;;;;;;5094169;28;19919;-45
2022/01/05 00:13:50;;;;;;;;;;;5.20;99.90;;;;;;5094067;28;19907;-50
2022/01/05 00:16:15;;;;;;;;;;;5.20;99.90;;;;;;5095704;28;20314;-45
2022/01/05 00:18:41;;;;;;;;;;;5.20;99.90;;;;;;5098060;28;19915;-46
2022/01/05 00:21:06;;;;;;;;;;;5.40;99.90;;;;;;5098219;28;19908;-46
2022/01/05 00:23:32;;;;;;;;;;;5.30;99.90;;;;;;5098191;28;20340;-45
2022/01/05 00:25:59;;;;;;;;;;;5.30;99.90;;;;;;5097947;28;19939;-47
2022/01/05 00:28:25;;;;;;;;;;;5.20;99.90;;;;;;5098071;28;19939;-45
2022/01/05 00:30:50;;;;;;;;;;;5.30;99.90;;;;;;5076114;28;20370;-46
2022/01/05 00:33:17;;;;;;;;;;;5.00;99.90;;;;;;5077329;28;20003;-44
2022/01/05 00:35:42;;;;;;;;;;;4.80;99.90;;;;;;5077614;28;19909;-47
2022/01/05 00:38:08;;;;;;;;;;;4.70;99.90;;;;;;5077560;28;19909;-46
2022/01/05 00:40:33;;;;;;;;;;;4.80;99.90;;;;;;5077526;28;19909;-48
2022/01/05 00:42:59;;;;;;;;;;;4.90;99.90;;;;;;5077321;28;19999;-46
2022/01/05 00:45:25;;;;;;;;;;;4.80;99.90;;;;;;5076205;28;19909;-46
2022/01/05 00:47:50;;;;;;;;;;;4.70;99.90;;;;;;5077613;28;19916;-46
2022/01/05 00:50:16;;;;;;;;;;;4.80;99.90;;;;;;5077409;28;19908;-44
2022/01/05 00:52:41;;;;;;;;;;;4.80;99.90;;;;;;5077095;28;19909;-44
2022/01/05 00:55:07;;;;;;;;;;;4.70;99.90;;;;;;5076035;28;20350;-47
2022/01/05 00:57:33;;;;;;;;;;;4.70;99.90;;;;;;5077262;28;19916;-46
2022/01/05 00:59:58;;;;;;;;;;;4.70;99.90;;;;;;5075964;28;19958;-47
2022/01/05 01:02:24;;;;;;;;;;;4.80;99.90;;;;;;5077270;28;19909;-50
2022/01/05 01:04:49;;;;;;;;;;;4.90;99.90;;;;;;5076862;28;20363;-46
2022/01/05 01:07:15;;;;;;;;;;;4.90;99.90;;;;;;5076776;28;19952;-44
2022/01/05 01:09:40;;;;;;;;;;;4.90;99.90;;;;;;5077035;28;19924;-45
2022/01/05 01:12:06;;;;;;;;;;;4.80;99.90;;;;;;5076668;28;19911;-45
2022/01/05 01:14:32;;;;;;;;;;;4.70;99.90;;;;;;5077036;28;19912;-47
2022/01/05 01:16:57;;;;;;;;;;;4.70;99.90;;;;;;5076929;28;20003;-47
2022/01/05 01:19:23;;;;;;;;;;;4.90;99.90;;;;;;5076594;28;20033;-45
2022/01/05 01:21:48;;;;;;;;;;;4.90;99.90;;;;;;5076478;28;20367;-45
2022/01/05 01:24:14;;;;;;;;;;;4.80;99.90;;;;;;5075515;28;19915;-45
2022/01/05 01:26:39;;;;;;;;;;;4.70;99.90;;;;;;5075132;28;19936;-45
2022/01/05 01:29:05;;;;;;;;;;;4.70;99.90;;;;;;5075972;28;19923;-50
2022/01/05 01:31:30;;;;;;;;;;;4.70;99.90;;;;;;5075239;28;19963;-45
2022/01/05 01:33:56;;;;;;;;;;;4.80;99.90;;;;;;5076740;28;20292;-46
2022/01/05 01:36:22;;;;;;;;;;;4.70;99.90;;;;;;5076338;28;19962;-48
2022/01/05 01:38:47;;;;;;;;;;;4.60;99.90;;;;;;5076261;28;19912;-47
2022/01/05 01:41:13;;;;;;;;;;;4.70;99.90;;;;;;5076522;28;19999;-47
2022/01/05 01:43:39;;;;;;;;;;;4.80;99.90;;;;;;5076192;28;19992;-50
2022/01/05 01:46:05;;;;;;;;;;;4.70;99.90;;;;;;5076273;28;19908;-47
2022/01/05 01:48:31;;;;;;;;;;;4.70;99.90;;;;;;5076305;28;19923;-48
2022/01/05 01:50:56;;;;;;;;;;;4.70;99.90;;;;;;5076380;28;20278;-45
2022/01/05 01:53:22;;;;;;;;;;;4.80;99.90;;;;;;5075896;28;20370;-46
2022/01/05 01:55:49;;;;;;;;;;;4.70;99.90;;;;;;5076008;28;19916;-47
2022/01/05 01:58:16;;;;;;;;;;;4.60;99.90;;;;;;5075931;28;19913;-45
2022/01/05 02:00:41;;;;;;;;;;;4.70;99.90;;;;;;5075895;28;19915;-45
2022/01/05 02:03:07;;;;;;;;;;;4.60;99.90;;;;;;5076109;28;19909;-43
2022/01/05 02:05:32;;;;;;;;;;;4.80;99.90;;;;;;5074712;28;19919;-47
2022/01/05 02:07:58;;;;;;;;;;;4.80;99.90;;;;;;5075990;28;19917;-47
2022/01/05 02:10:23;;;;;;;;;;;4.60;99.90;;;;;;5075674;28;19915;-49
2022/01/05 02:12:50;;;;;;;;;;;4.70;99.90;;;;;;5075879;28;19913;-49
2022/01/05 02:15:16;;;;;;;;;;;4.80;99.90;;;;;;5075626;28;19908;-45
2022/01/05 02:17:56;;;;;;;;;;;4.70;99.90;;;;;;5075862;28;19999;-48
2022/01/05 02:20:23;;;;;;;;;;;4.90;99.90;;;;;;5075909;28;19909;-45
2022/01/05 02:22:49;;;;;;;;;;;4.80;99.90;;;;;;5075703;28;19908;-49
2022/01/05 02:25:15;;;;;;;;;;;4.70;99.90;;;;;;5075435;28;19912;-46
2022/01/05 02:27:41;;;;;;;;;;;4.80;99.90;;;;;;5075231;28;19991;-46
2022/01/05 02:30:09;;;;;;;;;;;4.90;99.90;;;;;;5079431;28;19966;-47
2022/01/05 02:32:34;;;;;;;;;;;5.00;99.90;;;;;;5095582;28;20281;-45
2022/01/05 02:35:00;;;;;;;;;;;5.00;99.90;;;;;;5095695;28;19915;-47
2022/01/05 02:37:25;;;;;;;;;;;5.00;99.90;;;;;;5095384;28;19908;-45
2022/01/05 02:39:51;;;;;;;;;;;4.90;99.90;;;;;;5095156;28;20277;-47
2022/01/05 02:42:29;;;;;;;;;;;4.60;99.90;;;;;;5095940;28;19908;-48
2022/01/05 02:44:55;;;;;;;;;;;4.70;99.90;;;;;;5095286;28;19987;-45
2022/01/05 02:47:21;;;;;;;;;;;4.70;99.90;;;;;;5095222;28;20006;-45
2022/01/05 02:49:46;;;;;;;;;;;4.70;99.90;;;;;;5095034;28;19971;-46
2022/01/05 02:52:13;;;;;;;;;;;4.90;99.90;;;;;;5095357;28;20281;-43
2022/01/05 02:54:38;;;;;;;;;;;4.90;99.90;;;;;;5095113;28;20393;-51
2022/01/05 02:57:04;;;;;;;;;;;4.70;99.90;;;;;;5094871;28;19908;-44
2022/01/05 02:59:30;;;;;;;;;;;4.70;99.90;;;;;;5094890;28;20351;-46
2022/01/05 03:01:55;;;;;;;;;;;4.80;99.90;;;;;;5095135;28;19915;-47
2022/01/05 03:04:21;;;;;;;;;;;4.90;99.90;;;;;;5095126;28;19915;-45
2022/01/05 03:06:46;;;;;;;;;;;4.90;99.90;;;;;;5094716;28;20346;-47
2022/01/05 03:09:12;;;;;;;;;;;4.90;99.90;;;;;;5094966;28;19966;-46
2022/01/05 03:11:37;;;;;;;;;;;4.90;99.90;;;;;;5076803;28;19908;-47
2022/01/05 03:14:03;;;;;;;;;;;4.90;99.90;;;;;;5094591;28;19912;-46
2022/01/05 03:16:28;;;;;;;;;;;5.00;99.90;;;;;;5095302;28;19909;-45
2022/01/05 03:18:54;;;;;;;;;;;5.10;99.90;;;;;;5076861;28;19908;-47
2022/01/05 03:21:19;;;;;;;;;;;5.20;99.90;;;;;;5094757;28;20358;-46
2022/01/05 03:23:46;;;;;;;;;;;5.10;99.90;;;;;;5094729;28;19908;-48
2022/01/05 03:26:12;;;;;;;;;;;5.20;99.90;;;;;;5094671;28;20436;-45
2022/01/05 03:28:38;;;;;;;;;;;5.20;99.90;;;;;;5094391;28;19919;-46
2022/01/05 03:31:03;;;;;;;;;;;5.10;99.90;;;;;;5094818;28;20373;-48
2022/01/05 03:33:29;;;;;;;;;;;5.10;99.90;;;;;;5094710;28;20062;-45
2022/01/05 03:35:55;;;;;;;;;;;5.00;99.90;;;;;;5094953;28;19915;-46
2022/01/05 03:38:20;;;;;;;;;;;5.00;99.90;;;;;;5094331;28;19908;-46
2022/01/05 03:40:47;;;;;;;;;;;5.10;99.90;;;;;;5094569;28;20311;-45
2022/01/05 03:43:12;;;;;;;;;;;5.00;99.90;;;;;;5076305;28;19908;-47
2022/01/05 03:45:38;;;;;;;;;;;5.00;99.90;;;;;;5094170;28;19908;-46
2022/01/05 03:48:04;;;;;;;;;;;5.10;99.90;;;;;;5094449;28;19917;-44
2022/01/05 03:50:30;;;;;;;;;;;5.20;99.90;;;;;;5093836;28;19931;-45
2022/01/05 03:52:55;;;;;;;;;;;5.10;99.90;;;;;;5094076;28;19908;-45
2022/01/05 03:55:21;;;;;;;;;;;5.20;99.90;;;;;;5094935;28;20317;-44
2022/01/05 03:57:47;;;;;;;;;;;5.00;99.90;;;;;;5094576;28;19995;-46
2022/01/05 04:00:12;;;;;;;;;;;5.10;99.90;;;;;;5093980;28;20029;-43
2022/01/05 04:02:38;;;;;;;;;;;5.00;99.90;;;;;;5093867;28;19951;-48
2022/01/05 04:05:04;;;;;;;;;;;4.90;99.90;;;;;;5076211;28;19908;-45
2022/01/05 04:07:29;;;;;;;;;;;4.80;99.90;;;;;;5093755;28;20250;-47
2022/01/05 04:09:55;;;;;;;;;;;4.70;99.90;;;;;;5094106;28;19916;-44
2022/01/05 04:12:20;;;;;;;;;;;4.80;99.90;;;;;;5093729;28;19958;-47
2022/01/05 04:14:46;;;;;;;;;;;4.70;99.90;;;;;;5094355;28;19908;-46
2022/01/05 04:17:11;;;;;;;;;;;4.70;99.90;;;;;;5094023;28;19909;-46
2022/01/05 04:19:37;;;;;;;;;;;4.70;99.90;;;;;;5093931;28;19919;-45
2022/01/05 04:22:02;;;;;;;;;;;4.70;99.90;;;;;;5093706;28;19912;-45
2022/01/05 04:24:28;;;;;;;;;;;4.70;99.90;;;;;;5075850;28;19931;-45
2022/01/05 04:26:53;;;;;;;;;;;4.50;99.90;;;;;;5093617;28;20354;-44
2022/01/05 04:29:19;;;;;;;;;;;4.70;99.90;;;;;;5093486;28;20352;-46
2022/01/05 04:31:45;;;;;;;;;;;4.60;99.90;;;;;;5093826;28;20428;-45
2022/01/05 04:34:11;;;;;;;;;;;4.50;99.90;;;;;;5093459;28;20358;-46
2022/01/05 04:36:37;;;;;;;;;;;4.40;99.90;;;;;;5093482;28;19912;-47
2022/01/05 04:39:02;;;;;;;;;;;4.40;99.90;;;;;;5093929;28;19964;-47
2022/01/05 04:41:28;;;;;;;;;;;4.50;99.90;;;;;;5093899;28;19912;-47
2022/01/05 04:43:53;;;;;;;;;;;4.50;99.90;;;;;;5075634;28;19952;-47
2022/01/05 04:46:19;;;;;;;;;;;4.50;99.90;;;;;;5093852;28;19958;-43
2022/01/05 04:48:44;;;;;;;;;;;4.70;99.90;;;;;;5093617;28;19917;-45
2022/01/05 04:51:10;;;;;;;;;;;4.80;99.90;;;;;;5075603;28;19908;-47
2022/01/05 04:53:35;;;;;;;;;;;4.70;99.90;;;;;;5093404;28;19962;-46
2022/01/05 04:56:01;;;;;;;;;;;4.90;99.90;;;;;;5093440;28;19915;-48
2022/01/05 04:58:27;;;;;;;;;;;4.90;99.90;;;;;;5075598;28;19908;-47
2022/01/05 05:00:53;;;;;;;;;;;4.80;99.90;;;;;;5075704;28;20281;-46
2022/01/05 05:03:18;;;;;;;;;;;4.70;99.90;;;;;;5078578;28;19908;-47
2022/01/05 05:05:44;;;;;;;;;;;4.70;99.90;;;;;;5097727;28;19908;-45
2022/01/05 05:08:09;;;;;;;;;;;4.50;99.90;;;;;;5096997;28;20277;-44
2022/01/05 05:10:35;;;;;;;;;;;4.60;99.90;;;;;;5097380;28;19915;-51
2022/01/05 05:13:06;;;;;;;;;;;4.70;99.90;;;;;;5078991;28;19908;-46
2022/01/05 05:15:31;;;;;;;;;;;4.70;99.90;;;;;;5097561;28;20389;-45
2022/01/05 05:17:57;;;;;;;;;;;4.70;99.90;;;;;;5097213;28;19908;-46
2022/01/05 05:20:22;;;;;;;;;;;4.70;99.90;;;;;;5096691;28;19959;-44
2022/01/05 05:22:48;;;;;;;;;;;4.70;99.90;;;;;;5096683;28;19908;-48
2022/01/05 05:25:13;;;;;;;;;;;4.70;99.90;;;;;;5096503;28;19912;-48
2022/01/05 05:27:39;;;;;;;;;;;4.80;99.90;;;;;;5096489;28;19908;-48
2022/01/05 05:30:05;;;;;;;;;;;4.80;99.90;;;;;;5096535;28;19920;-46
2022/01/05 05:32:30;;;;;;;;;;;4.80;99.90;;;;;;5096838;28;20038;-46
2022/01/05 05:34:56;;;;;;;;;;;4.70;99.90;;;;;;5091797;28;19913;-45
2022/01/05 05:37:22;;;;;;;;;;;4.60;99.90;;;;;;5095017;28;19916;-47
2022/01/05 05:39:47;;;;;;;;;;;4.70;99.90;;;;;;5090996;28;19914;-44
2022/01/05 05:42:13;;;;;;;;;;;4.90;99.90;;;;;;5076813;28;19954;-46
2022/01/05 05:44:38;;;;;;;;;;;4.90;99.90;;;;;;5095342;28;19908;-45
2022/01/05 05:47:05;;;;;;;;;;;4.80;99.90;;;;;;5094613;28;20281;-45
2022/01/05 05:49:31;;;;;;;;;;;4.80;99.90;;;;;;5094938;28;19931;-47
2022/01/05 05:51:56;;;;;;;;;;;4.90;99.90;;;;;;5091969;28;19912;-45
2022/01/05 05:54:22;;;;;;;;;;;4.70;99.90;;;;;;5094880;28;19938;-44
2022/01/05 05:56:47;;;;;;;;;;;4.80;99.90;;;;;;5094455;28;20242;-45
2022/01/05 05:59:13;;;;;;;;;;;4.80;99.90;;;;;;5092300;28;19919;-50
2022/01/05 06:01:38;;;;;;;;;;;4.80;99.90;;;;;;5094463;28;19908;-45
2022/01/05 06:04:04;;;;;;;;;;;4.80;99.90;;;;;;5092727;28;19960;-46
2022/01/05 06:06:29;;;;;;;;;;;4.70;99.90;;;;;;5094386;28;19908;-49
2022/01/05 06:08:55;;;;;;;;;;;4.70;99.90;;;;;;5094541;28;19916;-45
2022/01/05 06:11:21;;;;;;;;;;;4.80;99.90;;;;;;5094203;28;19912;-48
2022/01/05 06:13:47;;;;;;;;;;;4.80;99.90;;;;;;5093741;28;19909;-48
2022/01/05 06:16:12;;;;;;;;;;;4.80;99.90;;;;;;5091264;28;20021;-46
2022/01/05 06:18:38;;;;;;;;;;;4.80;99.90;;;;;;5094764;28;20065;-49
2022/01/05 06:21:03;;;;;;;;;;;4.70;99.90;;;;;;5093450;28;19908;-45
2022/01/05 06:23:29;;;;;;;;;;;4.70;99.90;;;;;;5093718;28;20413;-47
2022/01/05 06:25:54;;;;;;;;;;;4.70;99.90;;;;;;5093458;28;19909;-47
2022/01/05 06:28:20;;;;;;;;;;;4.80;99.90;;;;;;5093469;28;19916;-48
2022/01/05 06:30:46;;;;;;;;;;;4.80;99.90;;;;;;5093478;28;20007;-45
2022/01/05 06:33:12;;;;;;;;;;;4.80;99.90;;;;;;5093986;28;19992;-46
2022/01/05 06:35:37;;;;;;;;;;;4.70;99.90;;;;;;5094946;28;19966;-47
2022/01/05 06:38:03;;;;;;;;;;;4.80;99.90;;;;;;5095391;28;19912;-46
2022/01/05 06:40:28;;;;;;;;;;;4.90;99.90;;;;;;5095521;28;19909;-43
2022/01/05 06:42:54;;;;;;;;;;;4.90;99.90;;;;;;5095104;28;19908;-46
2022/01/05 06:45:20;;;;;;;;;;;4.90;99.90;;;;;;5094893;28;20335;-46
2022/01/05 06:47:46;;;;;;;;;;;4.80;99.90;;;;;;5095029;28;20361;-46
2022/01/05 06:50:11;;;;;;;;;;;4.80;99.90;;;;;;5076808;28;19912;-45
2022/01/05 06:52:37;;;;;;;;;;;4.70;99.90;;;;;;5095165;28;19912;-48
2022/01/05 06:55:03;;;;;;;;;;;4.70;99.90;;;;;;5094861;28;19912;-49
2022/01/05 06:57:29;;;;;;;;;;;4.70;99.90;;;;;;5095006;28;19953;-47
2022/01/05 06:59:54;;;;;;;;;;;4.80;99.90;;;;;;5095064;28;20273;-44
2022/01/05 07:02:20;;;;;;;;;;;4.90;99.90;;;;;;5094828;28;19908;-47
2022/01/05 07:04:45;;;;;;;;;;;4.90;99.90;;;;;;5094532;28;19938;-47
2022/01/05 07:07:11;;;;;;;;;;;4.90;99.90;;;;;;5076472;28;19908;-47
2022/01/05 07:09:36;;;;;;;;;;;4.80;99.90;;;;;;5094787;28;19920;-48
2022/01/05 07:12:02;;;;;;;;;;;4.70;99.90;;;;;;5094598;28;20567;-44
2022/01/05 07:14:28;;;;;;;;;;;4.90;99.90;;;;;;5095003;28;19961;-47
2022/01/05 07:16:53;;;;;;;;;;;4.90;99.90;;;;;;5093068;28;19908;-47
2022/01/05 07:19:20;;;;;;;;;;;4.80;99.90;;;;;;5084327;28;19909;-48
2022/01/05 07:21:46;;;;;;;;;;;4.70;99.90;;;;;;5056296;28;19909;-47
2022/01/05 07:24:12;;;;;;;;;;;4.80;99.90;;;;;;5087117;28;19915;-47
2022/01/05 07:26:38;;;;;;;;;;;4.80;99.90;;;;;;5075604;28;19908;-48
2022/01/05 07:29:03;;;;;;;;;;;4.90;99.90;;;;;;5094028;28;20032;-45
2022/01/05 07:31:30;;;;;;;;;;;4.80;99.90;;;;;;5094420;28;19932;-47
2022/01/05 07:33:56;;;;;;;;;;;4.90;99.90;;;;;;5092487;28;19929;-47
2022/01/05 07:36:21;;;;;;;;;;;4.90;99.90;;;;;;5073876;28;19937;-45
2022/01/05 07:38:47;;;;;;;;;;;5.00;99.90;;;;;;5092183;28;19908;-48
2022/01/05 07:41:12;;;;;;;;;;;5.00;99.90;;;;;;5091747;28;19923;-45
2022/01/05 07:43:38;;;;;;;;;;;4.80;99.90;;;;;;5093794;28;19998;-49
2022/01/05 07:46:03;;;;;;;;;;;4.90;99.90;;;;;;5094021;28;19911;-46
2022/01/05 07:48:29;;;;;;;;;;;4.90;99.90;;;;;;5094009;28;19927;-45
2022/01/05 07:50:54;;;;;;;;;;;5.00;99.90;;;;;;5094343;28;19912;-47
2022/01/05 07:53:20;;;;;;;;;;;5.10;99.90;;;;;;5075787;28;20451;-45
2022/01/05 07:55:45;;;;;;;;;;;5.10;99.90;;;;;;5093240;28;20258;-46
2022/01/05 07:58:11;;;;;;;;;;;5.10;99.90;;;;;;5093583;28;19909;-46
2022/01/05 08:00:36;;;;;;;;;;;5.10;99.90;;;;;;5074610;28;19916;-47
2022/01/05 08:03:02;;;;;;;;;;;5.10;99.90;;;;;;5092761;28;19916;-47
2022/01/05 08:05:27;;;;;;;;;;;5.10;99.90;;;;;;5092020;28;19958;-47
2022/01/05 08:07:53;;;;;;;;;;;5.10;99.90;;;;;;5089561;28;20243;-45
2022/01/05 08:10:18;;;;;;;;;;;5.10;99.90;;;;;;5092813;28;19920;-44
2022/01/05 08:12:44;;;;;;;;;;;4.90;99.90;;;;;;5089290;28;20007;-47
2022/01/05 08:15:10;;;;;;;;;;;4.90;99.90;;;;;;5075589;28;19940;-47
2022/01/05 08:17:36;;;;;;;;;;;4.90;99.90;;;;;;5086235;28;19909;-44
2022/01/05 08:20:03;;;;;;;;;;;4.90;99.90;;;;;;5073440;28;19909;-47
2022/01/05 08:22:29;;;;;;;;;;;4.80;99.90;;;;;;5073204;28;19909;-45
2022/01/05 08:24:54;;;;;;;;;;;5.00;99.90;;;;;;5079224;28;19920;-45
2022/01/05 08:27:20;;;;;;;;;;;5.00;99.90;;;;;;5093238;28;19908;-47
2022/01/05 08:29:45;;;;;;;;;;;4.90;99.90;;;;;;5089853;28;19920;-46
2022/01/05 08:32:11;;;;;;;;;;;4.90;99.90;;;;;;5090626;28;20362;-46
2022/01/05 08:34:36;;;;;;;;;;;4.90;99.90;;;;;;5074262;28;19927;-48
2022/01/05 08:37:02;;;;;;;;;;;4.80;99.90;;;;;;5094195;28;19991;-50
2022/01/05 08:39:28;;;;;;;;;;;4.80;99.90;;;;;;5093782;28;19912;-51
2022/01/05 08:41:53;;;;;;;;;;;4.90;99.90;;;;;;5088781;28;19939;-46
2022/01/05 08:44:19;;;;;;;;;;;4.80;99.90;;;;;;5097128;28;20013;-45
2022/01/05 08:46:45;;;;;;;;;;;4.80;99.90;;;;;;5097375;28;19961;-45
2022/01/05 08:49:10;;;;;;;;;;;4.80;99.90;;;;;;5096825;28;20112;-47
2022/01/05 08:51:37;;;;;;;;;;;4.80;99.90;;;;;;5097320;28;20369;-46
2022/01/05 08:54:02;;;;;;;;;;;4.80;99.90;;;;;;5096627;28;19914;-46
2022/01/05 08:56:28;;;;;;;;;;;4.70;99.90;;;;;;5096980;28;19908;-47
2022/01/05 08:58:54;;;;;;;;;;;4.80;99.90;;;;;;5096471;28;19965;-45
2022/01/05 09:01:20;;;;;;;;;;;4.70;99.90;;;;;;5096538;28;19943;-48
2022/01/05 09:03:45;;;;;;;;;;;4.70;99.90;;;;;;5078494;28;20020;-45
2022/01/05 09:06:11;;;;;;;;;;;4.70;99.90;;;;;;5097064;28;19916;-44
2022/01/05 09:08:38;;;;;;;;;;;4.60;99.90;;;;;;5096834;28;20019;-46
2022/01/05 09:11:03;;;;;;;;;;;4.70;99.90;;;;;;5097278;28;19943;-46
2022/01/05 09:13:29;;;;;;;;;;;4.60;99.90;;;;;;5096752;28;19915;-47
2022/01/05 09:15:54;;;;;;;;;;;4.70;99.90;;;;;;5096769;28;19958;-44
2022/01/05 09:18:20;;;;;;;;;;;4.50;99.90;;;;;;5096646;28;20346;-45
2022/01/05 09:20:45;;;;;;;;;;;4.40;99.90;;;;;;5078471;28;19908;-52
2022/01/05 09:23:11;;;;;;;;;;;4.40;99.90;;;;;;5085361;28;19912;-45
2022/01/05 09:25:37;;;;;;;;;;;4.30;99.90;;;;;;5076228;28;19923;-48
2022/01/05 09:28:03;;;;;;;;;;;4.30;99.90;;;;;;5089691;28;19923;-46
2022/01/05 09:30:29;;;;;;;;;;;4.10;99.90;;;;;;5077578;28;20021;-46
2022/01/05 09:32:54;;;;;;;;;;;4.20;99.90;;;;;;5096242;28;20061;-46
2022/01/05 09:35:22;;;;;;;;;;;4.20;99.90;;;;;;5092308;28;19978;-47
2022/01/05 09:38:06;;;;;;;;;;;4.20;99.90;;;;;;5086939;28;19913;-47
2022/01/05 09:43:16;;;;;;;;;;;4.00;99.90;;;;;;5087380;28;19923;-46
2022/01/05 09:45:49;;;;;;;;;;;4.00;99.90;;;;;;5076501;28;20029;-47
2022/01/05 09:48:17;;;;;;;;;;;3.90;99.90;;;;;;5075347;28;19931;-45
2022/01/05 09:51:03;;;;;;;;;;;3.70;99.90;;;;;;5064559;28;19970;-46
2022/01/05 09:53:30;;;;;;;;;;;3.70;99.90;;;;;;5069182;28;19912;-45
2022/01/05 09:55:56;;;;;;;;;;;3.70;99.90;;;;;;5081231;28;19919;-48
2022/01/05 09:58:23;;;;;;;;;;;3.70;99.90;;;;;;5057443;28;19908;-50
2022/01/05 10:00:49;;;;;;;;;;;3.70;99.90;;;;;;5075838;28;20343;-49
2022/01/05 10:03:15;;;;;;;;;;;3.60;99.90;;;;;;5075096;28;20389;-45
2022/01/05 10:05:41;;;;;;;;;;;3.60;99.90;;;;;;5057623;28;19909;-46
2022/01/05 10:08:07;;;;;;;;;;;3.40;99.90;;;;;;5075725;28;19916;-47
2022/01/05 10:10:33;;;;;;;;;;;3.40;99.90;;;;;;5075201;28;20379;-47
2022/01/05 10:12:59;;;;;;;;;;;3.30;99.90;;;;;;5057515;28;19915;-46
2022/01/05 10:15:25;;;;;;;;;;;3.30;99.90;;;;;;5075459;28;19909;-50
2022/01/05 10:18:07;;;;;;;;;;;3.40;99.90;;;;;;5056950;28;19948;-46
2022/01/05 10:20:32;;;;;;;;;;;3.50;99.90;;;;;;5075218;28;19944;-49
2022/01/05 10:22:58;;;;;;;;;;;3.70;99.90;;;;;;5074666;28;19958;-49
2022/01/05 10:25:23;;;;;;;;;;;3.80;99.90;;;;;;5074965;28;19915;-47
2022/01/05 10:27:56;;;;;;;;;;;3.80;99.90;;;;;;5075003;28;19939;-47
2022/01/05 10:30:32;;;;;;;;;;;3.70;99.90;;;;;;5075102;28;19920;-49
2022/01/05 10:32:58;;;;;;;;;;;3.80;99.90;;;;;;5075068;28;19909;-46
2022/01/05 10:35:27;;;;;;;;;;;3.60;99.90;;;;;;5075025;28;20007;-50
2022/01/05 10:37:58;;;;;;;;;;;3.40;99.90;;;;;;5074381;28;19970;-47
2022/01/05 10:40:23;;;;;;;;;;;3.40;99.90;;;;;;5074696;28;19912;-45
2022/01/05 10:42:56;;;;;;;;;;;3.50;99.90;;;;;;5074678;28;19912;-45
2022/01/05 10:45:21;;;;;;;;;;;3.80;99.90;;;;;;5074435;28;20397;-45
2022/01/05 10:48:02;;;;;;;;;;;3.60;99.90;;;;;;5074376;28;19912;-47
2022/01/05 10:50:28;;;;;;;;;;;3.70;99.90;;;;;;5074233;28;19909;-49
2022/01/05 10:52:54;;;;;;;;;;;3.80;99.90;;;;;;5074796;28;19909;-48
2022/01/05 10:55:21;;;;;;;;;;;3.90;99.90;;;;;;5074084;28;20011;-47
2022/01/05 10:57:59;;;;;;;;;;;3.90;99.90;;;;;;5074534;28;19913;-50
2022/01/05 11:00:32;;;;;;;;;;;3.80;99.90;;;;;;5074225;28;20019;-49
2022/01/05 11:02:58;;;;;;;;;;;3.90;99.90;;;;;;5074253;28;19966;-46
2022/01/05 11:05:24;;;;;;;;;;;3.90;99.90;;;;;;5074510;28;19951;-48
2022/01/05 11:07:49;;;;;;;;;;;3.80;99.90;;;;;;5074112;28;19916;-48
2022/01/05 11:10:21;;;;;;;;;;;3.70;99.90;;;;;;5074317;28;19909;-46
2022/01/05 11:12:50;;;;;;;;;;;3.80;99.90;;;;;;5073881;28;19909;-47
2022/01/05 11:15:22;;;;;;;;;;;3.90;99.90;;;;;;5074319;28;20018;-47
2022/01/05 11:18:08;;;;;;;;;;;3.90;99.90;;;;;;5073775;28;19908;-46
2022/01/05 11:20:55;;;;;;;;;;;3.90;99.90;;;;;;5073470;28;20271;-46
2022/01/05 11:23:25;;;;;;;;;;;3.70;99.90;;;;;;5045369;28;19913;-48
2022/01/05 11:25:51;;;;;;;;;;;3.60;99.90;;;;;;5073939;28;19908;-45
2022/01/05 11:28:18;;;;;;;;;;;3.50;99.90;;;;;;5074241;28;19915;-51
2022/01/05 11:30:45;;;;;;;;;;;3.50;99.90;;;;;;5073947;28;19974;-47
2022/01/05 11:33:11;;;;;;;;;;;3.30;99.90;;;;;;5056019;28;19942;-46
2022/01/05 11:35:37;;;;;;;;;;;3.40;99.90;;;;;;5073753;28;20247;-51
2022/01/05 11:38:03;;;;;;;;;;;3.40;99.90;;;;;;5073255;28;19948;-45
2022/01/05 11:40:29;;;;;;;;;;;3.40;99.90;;;;;;5073683;28;19909;-48
2022/01/05 11:43:16;;;;;;;;;;;3.20;99.90;;;;;;5073902;28;19978;-46
2022/01/05 11:45:45;;;;;;;;;;;2.90;99.90;;;;;;5073814;28;19978;-46
2022/01/05 11:48:27;;;;;;;;;;;2.60;99.90;;;;;;5073450;28;19932;-47
2022/01/05 11:50:56;;;;;;;;;;;2.60;99.90;;;;;;5073780;28;19919;-48
2022/01/05 11:53:41;;;;;;;;;;;2.50;99.90;;;;;;5073579;28;19978;-47
2022/01/05 11:56:10;;;;;;;;;;;2.60;99.90;;;;;;5073397;28;19970;-48
2022/01/05 11:58:36;;;;;;;;;;;2.70;99.90;;;;;;5073219;28;19970;-46
2022/01/05 12:01:17;;;;;;;;;;;2.80;99.90;;;;;;5073330;28;20010;-49
2022/01/05 12:03:52;;;;;;;;;;;2.90;99.90;;;;;;5073328;28;19978;-47
2022/01/05 12:06:18;;;;;;;;;;;2.70;99.90;;;;;;5072841;28;19944;-47
2022/01/05 12:08:43;;;;;;;;;;;2.90;99.90;;;;;;5072960;28;20287;-51
2022/01/05 12:11:28;;;;;;;;;;;3.00;99.90;;;;;;5072674;28;19954;-47
2022/01/05 12:13:54;;;;;;;;;;;3.10;99.90;;;;;;5073497;28;20200;-46
2022/01/05 12:16:19;;;;;;;;;;;3.30;99.90;;;;;;5072911;28;19931;-45
2022/01/05 12:19:01;;;;;;;;;;;3.30;99.90;;;;;;5073129;28;19959;-47
2022/01/05 12:21:46;;;;;;;;;;;3.00;99.90;;;;;;5072990;28;20309;-49
2022/01/05 12:24:13;;;;;;;;;;;3.00;99.90;;;;;;5073070;28;20271;-48
2022/01/05 12:26:38;;;;;;;;;;;3.10;99.90;;;;;;5073306;28;20428;-46
2022/01/05 12:29:04;;;;;;;;;;;3.20;99.90;;;;;;5073070;28;19912;-48
2022/01/05 12:31:48;;;;;;;;;;;3.40;99.90;;;;;;5072878;28;19928;-47
2022/01/05 12:34:14;;;;;;;;;;;3.20;99.90;;;;;;5073227;28;19999;-49
2022/01/05 12:36:42;;;;;;;;;;;3.40;99.90;;;;;;5073008;28;19931;-46
2022/01/05 12:39:08;;;;;;;;;;;3.50;99.90;;;;;;5073071;28;19927;-46
2022/01/05 12:41:40;;;;;;;;;;;3.40;99.90;;;;;;5072999;28;19912;-48
2022/01/05 12:44:07;;;;;;;;;;;3.40;99.90;;;;;;5073165;28;19936;-49
2022/01/05 12:46:43;;;;;;;;;;;3.20;99.90;;;;;;5073040;28;19915;-47
2022/01/05 12:49:09;;;;;;;;;;;3.10;99.90;;;;;;5073136;28;19931;-45
2022/01/05 12:51:39;;;;;;;;;;;3.10;99.90;;;;;;5072613;28;19908;-44
2022/01/05 12:54:08;;;;;;;;;;;2.90;99.90;;;;;;5072966;28;19912;-46
2022/01/05 12:56:40;;;;;;;;;;;3.10;99.90;;;;;;5073081;28;19908;-46
2022/01/05 12:59:07;;;;;;;;;;;3.20;99.90;;;;;;5072850;28;20315;-50
2022/01/05 13:01:33;;;;;;;;;;;3.20;99.90;;;;;;5055068;28;20404;-47
2022/01/05 13:03:59;;;;;;;;;;;3.30;99.90;;;;;;5072997;28;19932;-47
2022/01/05 13:06:25;;;;;;;;;;;3.20;99.90;;;;;;5054805;28;19941;-48
2022/01/05 13:08:52;;;;;;;;;;;3.10;99.90;;;;;;5054848;28;19909;-49
2022/01/05 13:11:37;;;;;;;;;;;3.10;99.90;;;;;;5073507;28;20332;-45
2022/01/05 13:14:20;;;;;;;;;;;3.00;99.90;;;;;;5073001;28;19919;-44
2022/01/05 13:16:50;;;;;;;;;;;3.10;99.90;;;;;;5072909;28;19908;-45
2022/01/05 13:19:27;;;;;;;;;;;2.90;99.90;;;;;;5072712;28;19923;-45
2022/01/05 13:21:54;;;;;;;;;;;3.00;99.90;;;;;;5072516;28;20279;-47
2022/01/05 13:24:20;;;;;;;;;;;3.10;99.90;;;;;;5073904;28;20342;-45
2022/01/05 13:27:05;;;;;;;;;;;3.00;99.90;;;;;;5076297;28;19916;-50
2022/01/05 13:29:32;;;;;;;;;;;3.00;99.90;;;;;;5075993;28;19908;-48
2022/01/05 13:31:58;;;;;;;;;;;3.00;99.90;;;;;;5076589;28;19975;-49
2022/01/05 13:34:34;;;;;;;;;;;3.00;99.90;;;;;;5075771;28;20365;-48
2022/01/05 13:37:00;;;;;;;;;;;2.90;99.90;;;;;;5076035;28;19908;-46
2022/01/05 13:39:35;;;;;;;;;;;2.90;99.90;;;;;;5076049;28;19923;-45
2022/01/05 13:42:00;;;;;;;;;;;3.10;99.90;;;;;;5075968;28;19931;-46
2022/01/05 13:44:26;;;;;;;;;;;3.00;99.90;;;;;;5075561;28;20355;-46
2022/01/05 13:46:51;;;;;;;;;;;3.00;99.90;;;;;;5075539;28;19915;-45
2022/01/05 13:49:17;;;;;;;;;;;3.00;99.90;;;;;;5075786;28;20377;-45
2022/01/05 13:51:42;;;;;;;;;;;3.00;99.90;;;;;;5075584;28;20382;-47
2022/01/05 13:54:09;;;;;;;;;;;3.00;99.90;;;;;;5057770;28;19908;-46
2022/01/05 13:56:41;;;;;;;;;;;3.00;99.90;;;;;;5076029;28;19916;-49
2022/01/05 13:59:08;;;;;;;;;;;2.90;99.90;;;;;;5075548;28;19917;-47
2022/01/05 14:01:33;;;;;;;;;;;3.00;99.90;;;;;;5075281;28;19916;-45
2022/01/05 14:04:07;;;;;;;;;;;3.00;99.90;;;;;;5075604;28;19920;-48
2022/01/05 14:06:32;;;;;;;;;;;3.00;99.90;;;;;;5075562;28;19944;-48
2022/01/05 14:08:59;;;;;;;;;;;3.00;99.90;;;;;;5075801;28;20330;-48
2022/01/05 14:11:25;;;;;;;;;;;3.00;99.90;;;;;;5057696;28;19909;-46
2022/01/05 14:13:51;;;;;;;;;;;2.90;99.90;;;;;;5057722;28;19915;-47
2022/01/05 14:16:33;;;;;;;;;;;2.80;99.90;;;;;;5057407;28;20354;-46
2022/01/05 14:19:18;;;;;;;;;;;2.80;99.90;;;;;;5075683;28;19917;-46
2022/01/05 14:21:47;;;;;;;;;;;2.70;99.90;;;;;;5064015;28;19915;-47
2022/01/05 14:24:32;;;;;;;;;;;2.70;99.90;;;;;;5056917;28;20010;-46
2022/01/05 14:26:58;;;;;;;;;;;2.70;99.90;;;;;;5074906;28;19969;-47
2022/01/05 14:29:27;;;;;;;;;;;2.60;99.90;;;;;;5075165;28;19943;-50
2022/01/05 14:32:00;;;;;;;;;;;2.60;99.90;;;;;;5075635;28;19965;-47
2022/01/05 14:34:26;;;;;;;;;;;2.70;99.90;;;;;;5074549;28;19970;-46